Altamont, South Dakota
Current Conditions -  °F | °C
As of 12:54 PM on Thursday 23 Oct 2014 (Local Time) from KCNB Reporting Station
Clear Clear  
Wind Chill: 20°   Ceiling: Unl
Heat Index: 20°   Visibility: 10mi
Dew Point:   Wind: 9mph
Humidity: 34%   Direction: 250°WSW
Pressure: 29.99"   Gusts: NA
Location:  44.7895°N, 96.7201°W
Report Text: KCNB 231754Z AUTO 25008KT 10SM CLR 20/04 A2999 RMK AO2 T02010039 10201 20091
Loading
Personal Weather Stations






























Interactive Weather Map
Tropical Storm Tracking
New forecast layout! Learn more

10-Day Weather Forecast

Advertisements
Track Severe Weather on mobile